sensor_id;sensor_type;location;lat;lon;timestamp;P1;durP1;ratioP1;P2;durP2;ratioP2
6642;SDS011;3357;48.050;7.800;2024-03-29T00:01:45;1.83;;;1.23;;
6642;SDS011;3357;48.050;7.800;2024-03-29T00:04:10;3.90;;;1.80;;
6642;SDS011;3357;48.050;7.800;2024-03-29T00:06:36;2.87;;;1.60;;
6642;SDS011;3357;48.050;7.800;2024-03-29T00:09:01;2.80;;;1.40;;
6642;SDS011;3357;48.050;7.800;2024-03-29T00:11:26;2.87;;;1.47;;
6642;SDS011;3357;48.050;7.800;2024-03-29T00:13:52;1.43;;;1.33;;
6642;SDS011;3357;48.050;7.800;2024-03-29T00:16:17;3.10;;;1.27;;
6642;SDS011;3357;48.050;7.800;2024-03-29T00:18:42;1.63;;;1.30;;
6642;SDS011;3357;48.050;7.800;2024-03-29T00:21:08;1.00;;;0.90;;
6642;SDS011;3357;48.050;7.800;2024-03-29T00:23:33;1.40;;;1.10;;
6642;SDS011;3357;48.050;7.800;2024-03-29T00:25:58;1.07;;;1.07;;
6642;SDS011;3357;48.050;7.800;2024-03-29T00:28:24;1.80;;;1.20;;
6642;SDS011;3357;48.050;7.800;2024-03-29T00:30:49;1.20;;;1.10;;
6642;SDS011;3357;48.050;7.800;2024-03-29T00:33:14;0.90;;;0.80;;
6642;SDS011;3357;48.050;7.800;2024-03-29T00:35:39;2.17;;;0.90;;
6642;SDS011;3357;48.050;7.800;2024-03-29T00:38:05;3.00;;;1.10;;
6642;SDS011;3357;48.050;7.800;2024-03-29T00:40:31;1.80;;;1.00;;
6642;SDS011;3357;48.050;7.800;2024-03-29T00:42:56;2.70;;;0.90;;
6642;SDS011;3357;48.050;7.800;2024-03-29T00:45:21;1.13;;;1.03;;
6642;SDS011;3357;48.050;7.800;2024-03-29T00:47:46;0.90;;;0.90;;
6642;SDS011;3357;48.050;7.800;2024-03-29T00:50:12;2.63;;;1.00;;
6642;SDS011;3357;48.050;7.800;2024-03-29T00:52:37;0.90;;;0.90;;
6642;SDS011;3357;48.050;7.800;2024-03-29T00:55:02;1.10;;;0.97;;
6642;SDS011;3357;48.050;7.800;2024-03-29T00:57:28;3.00;;;1.10;;
6642;SDS011;3357;48.050;7.800;2024-03-29T00:59:53;2.40;;;1.00;;
6642;SDS011;3357;48.050;7.800;2024-03-29T01:02:18;1.13;;;1.03;;
6642;SDS011;3357;48.050;7.800;2024-03-29T01:04:44;1.57;;;1.00;;
6642;SDS011;3357;48.050;7.800;2024-03-29T01:07:09;3.17;;;1.20;;
6642;SDS011;3357;48.050;7.800;2024-03-29T01:09:34;3.13;;;1.10;;
6642;SDS011;3357;48.050;7.800;2024-03-29T01:11:59;1.73;;;1.17;;
6642;SDS011;3357;48.050;7.800;2024-03-29T01:14:25;1.13;;;0.90;;
6642;SDS011;3357;48.050;7.800;2024-03-29T01:16:50;2.07;;;1.07;;
6642;SDS011;3357;48.050;7.800;2024-03-29T01:19:15;1.87;;;1.60;;
6642;SDS011;3357;48.050;7.800;2024-03-29T01:21:40;2.57;;;1.20;;
6642;SDS011;3357;48.050;7.800;2024-03-29T01:24:06;2.00;;;1.27;;
6642;SDS011;3357;48.050;7.800;2024-03-29T01:26:31;1.67;;;1.07;;
6642;SDS011;3357;48.050;7.800;2024-03-29T01:28:56;1.07;;;0.93;;
6642;SDS011;3357;48.050;7.800;2024-03-29T01:31:22;1.10;;;1.10;;
6642;SDS011;3357;48.050;7.800;2024-03-29T01:33:50;1.90;;;1.10;;
6642;SDS011;3357;48.050;7.800;2024-03-29T01:36:15;0.90;;;0.90;;
6642;SDS011;3357;48.050;7.800;2024-03-29T01:38:40;1.73;;;1.30;;
6642;SDS011;3357;48.050;7.800;2024-03-29T01:41:05;1.40;;;1.23;;
6642;SDS011;3357;48.050;7.800;2024-03-29T01:43:31;2.40;;;1.33;;
6642;SDS011;3357;48.050;7.800;2024-03-29T01:45:57;1.73;;;1.27;;
6642;SDS011;3357;48.050;7.800;2024-03-29T01:48:22;1.90;;;1.40;;
6642;SDS011;3357;48.050;7.800;2024-03-29T01:50:49;1.30;;;1.00;;
6642;SDS011;3357;48.050;7.800;2024-03-29T01:53:15;6.33;;;1.53;;
6642;SDS011;3357;48.050;7.800;2024-03-29T01:55:41;6.70;;;1.20;;
6642;SDS011;3357;48.050;7.800;2024-03-29T01:58:07;1.80;;;1.70;;
6642;SDS011;3357;48.050;7.800;2024-03-29T02:00:33;1.93;;;1.37;;
6642;SDS011;3357;48.050;7.800;2024-03-29T02:03:02;2.87;;;1.30;;
6642;SDS011;3357;48.050;7.800;2024-03-29T02:05:29;3.53;;;1.20;;
6642;SDS011;3357;48.050;7.800;2024-03-29T02:07:54;2.30;;;1.37;;
6642;SDS011;3357;48.050;7.800;2024-03-29T02:10:20;1.90;;;1.00;;
6642;SDS011;3357;48.050;7.800;2024-03-29T02:12:45;2.13;;;1.20;;
6642;SDS011;3357;48.050;7.800;2024-03-29T02:15:14;1.97;;;1.53;;
6642;SDS011;3357;48.050;7.800;2024-03-29T02:17:41;2.80;;;1.10;;
6642;SDS011;3357;48.050;7.800;2024-03-29T02:20:06;1.40;;;1.27;;
6642;SDS011;3357;48.050;7.800;2024-03-29T02:22:32;2.40;;;1.30;;
6642;SDS011;3357;48.050;7.800;2024-03-29T02:24:58;2.63;;;1.20;;
6642;SDS011;3357;48.050;7.800;2024-03-29T02:27:24;1.63;;;1.00;;
6642;SDS011;3357;48.050;7.800;2024-03-29T02:29:49;1.97;;;1.33;;
6642;SDS011;3357;48.050;7.800;2024-03-29T02:32:14;1.00;;;0.90;;
6642;SDS011;3357;48.050;7.800;2024-03-29T02:34:40;2.73;;;0.90;;
6642;SDS011;3357;48.050;7.800;2024-03-29T02:37:05;0.97;;;0.90;;
6642;SDS011;3357;48.050;7.800;2024-03-29T02:39:31;1.40;;;0.77;;
6642;SDS011;3357;48.050;7.800;2024-03-29T02:41:56;1.30;;;1.00;;
6642;SDS011;3357;48.050;7.800;2024-03-29T02:44:21;1.40;;;1.03;;
6642;SDS011;3357;48.050;7.800;2024-03-29T02:46:47;0.63;;;0.63;;
6642;SDS011;3357;48.050;7.800;2024-03-29T02:49:12;1.10;;;0.80;;
6642;SDS011;3357;48.050;7.800;2024-03-29T02:51:37;2.80;;;0.97;;
6642;SDS011;3357;48.050;7.800;2024-03-29T02:54:02;2.23;;;0.87;;
6642;SDS011;3357;48.050;7.800;2024-03-29T02:56:28;0.80;;;0.70;;
6642;SDS011;3357;48.050;7.800;2024-03-29T02:58:54;2.07;;;0.90;;
6642;SDS011;3357;48.050;7.800;2024-03-29T03:01:20;0.73;;;0.73;;
6642;SDS011;3357;48.050;7.800;2024-03-29T03:03:45;1.07;;;0.73;;
6642;SDS011;3357;48.050;7.800;2024-03-29T03:06:10;1.53;;;1.30;;
6642;SDS011;3357;48.050;7.800;2024-03-29T03:08:35;0.70;;;0.70;;
6642;SDS011;3357;48.050;7.800;2024-03-29T03:11:19;0.80;;;0.80;;
6642;SDS011;3357;48.050;7.800;2024-03-29T03:13:45;1.23;;;0.90;;
6642;SDS011;3357;48.050;7.800;2024-03-29T03:16:10;1.10;;;1.00;;
6642;SDS011;3357;48.050;7.800;2024-03-29T03:18:35;1.93;;;1.00;;
6642;SDS011;3357;48.050;7.800;2024-03-29T03:21:00;1.00;;;0.90;;
6642;SDS011;3357;48.050;7.800;2024-03-29T03:23:26;1.70;;;1.00;;
6642;SDS011;3357;48.050;7.800;2024-03-29T03:25:59;1.80;;;0.97;;
6642;SDS011;3357;48.050;7.800;2024-03-29T03:28:26;1.00;;;0.90;;
6642;SDS011;3357;48.050;7.800;2024-03-29T03:30:51;0.90;;;0.90;;
6642;SDS011;3357;48.050;7.800;2024-03-29T03:33:17;1.30;;;1.10;;
6642;SDS011;3357;48.050;7.800;2024-03-29T03:35:43;3.73;;;1.00;;
6642;SDS011;3357;48.050;7.800;2024-03-29T03:38:08;1.20;;;1.10;;
6642;SDS011;3357;48.050;7.800;2024-03-29T03:40:34;1.13;;;1.13;;
6642;SDS011;3357;48.050;7.800;2024-03-29T03:43:00;1.30;;;0.90;;
6642;SDS011;3357;48.050;7.800;2024-03-29T03:45:33;1.17;;;0.90;;
6642;SDS011;3357;48.050;7.800;2024-03-29T03:48:02;1.20;;;1.10;;
6642;SDS011;3357;48.050;7.800;2024-03-29T03:50:29;1.30;;;1.20;;
6642;SDS011;3357;48.050;7.800;2024-03-29T03:52:54;1.20;;;1.00;;
6642;SDS011;3357;48.050;7.800;2024-03-29T03:55:19;1.70;;;1.37;;
6642;SDS011;3357;48.050;7.800;2024-03-29T03:57:45;1.23;;;0.80;;
6642;SDS011;3357;48.050;7.800;2024-03-29T04:00:10;2.30;;;1.20;;
6642;SDS011;3357;48.050;7.800;2024-03-29T04:02:36;1.07;;;0.80;;
6642;SDS011;3357;48.050;7.800;2024-03-29T04:05:01;6.40;;;1.20;;
6642;SDS011;3357;48.050;7.800;2024-03-29T04:07:26;1.20;;;1.10;;
6642;SDS011;3357;48.050;7.800;2024-03-29T04:09:52;1.10;;;0.90;;
6642;SDS011;3357;48.050;7.800;2024-03-29T04:12:17;4.00;;;1.23;;
6642;SDS011;3357;48.050;7.800;2024-03-29T04:14:42;1.93;;;1.00;;
6642;SDS011;3357;48.050;7.800;2024-03-29T04:17:08;1.27;;;1.10;;
6642;SDS011;3357;48.050;7.800;2024-03-29T04:19:33;2.07;;;1.40;;
6642;SDS011;3357;48.050;7.800;2024-03-29T04:21:58;1.60;;;1.00;;
6642;SDS011;3357;48.050;7.800;2024-03-29T04:24:24;1.20;;;1.00;;
6642;SDS011;3357;48.050;7.800;2024-03-29T04:26:49;1.93;;;1.20;;
6642;SDS011;3357;48.050;7.800;2024-03-29T04:29:14;1.93;;;1.17;;
6642;SDS011;3357;48.050;7.800;2024-03-29T04:31:40;0.97;;;0.97;;
6642;SDS011;3357;48.050;7.800;2024-03-29T04:34:05;2.80;;;1.30;;
6642;SDS011;3357;48.050;7.800;2024-03-29T04:36:30;2.60;;;1.17;;
6642;SDS011;3357;48.050;7.800;2024-03-29T04:38:56;2.33;;;1.33;;
6642;SDS011;3357;48.050;7.800;2024-03-29T04:41:21;1.30;;;1.10;;
6642;SDS011;3357;48.050;7.800;2024-03-29T04:43:46;1.27;;;1.00;;
6642;SDS011;3357;48.050;7.800;2024-03-29T04:46:12;1.83;;;1.50;;
6642;SDS011;3357;48.050;7.800;2024-03-29T04:48:39;2.17;;;1.60;;
6642;SDS011;3357;48.050;7.800;2024-03-29T04:51:06;6.60;;;3.00;;
6642;SDS011;3357;48.050;7.800;2024-03-29T04:53:31;4.97;;;2.20;;
6642;SDS011;3357;48.050;7.800;2024-03-29T04:55:57;3.70;;;1.70;;
6642;SDS011;3357;48.050;7.800;2024-03-29T04:58:23;1.87;;;1.67;;
6642;SDS011;3357;48.050;7.800;2024-03-29T05:00:52;1.93;;;1.40;;
6642;SDS011;3357;48.050;7.800;2024-03-29T05:03:18;1.60;;;1.50;;
6642;SDS011;3357;48.050;7.800;2024-03-29T05:05:44;2.13;;;1.37;;
6642;SDS011;3357;48.050;7.800;2024-03-29T05:08:09;2.20;;;1.20;;
6642;SDS011;3357;48.050;7.800;2024-03-29T05:10:35;1.23;;;1.10;;
6642;SDS011;3357;48.050;7.800;2024-03-29T05:13:00;4.33;;;1.60;;
6642;SDS011;3357;48.050;7.800;2024-03-29T05:15:29;1.57;;;1.47;;
6642;SDS011;3357;48.050;7.800;2024-03-29T05:17:54;3.60;;;1.27;;
6642;SDS011;3357;48.050;7.800;2024-03-29T05:20:19;2.30;;;1.07;;
6642;SDS011;3357;48.050;7.800;2024-03-29T05:22:45;1.73;;;1.10;;
6642;SDS011;3357;48.050;7.800;2024-03-29T05:25:10;1.87;;;1.10;;
6642;SDS011;3357;48.050;7.800;2024-03-29T05:27:35;2.47;;;1.17;;
6642;SDS011;3357;48.050;7.800;2024-03-29T05:30:01;3.90;;;1.20;;
6642;SDS011;3357;48.050;7.800;2024-03-29T05:32:28;5.00;;;0.90;;
6642;SDS011;3357;48.050;7.800;2024-03-29T05:34:53;0.80;;;0.80;;
6642;SDS011;3357;48.050;7.800;2024-03-29T05:37:19;0.97;;;0.93;;
6642;SDS011;3357;48.050;7.800;2024-03-29T05:39:44;3.00;;;1.10;;
6642;SDS011;3357;48.050;7.800;2024-03-29T05:42:09;2.00;;;1.00;;
6642;SDS011;3357;48.050;7.800;2024-03-29T05:44:35;0.70;;;0.70;;
6642;SDS011;3357;48.050;7.800;2024-03-29T05:47:01;0.80;;;0.80;;
6642;SDS011;3357;48.050;7.800;2024-03-29T05:49:29;1.30;;;1.00;;
6642;SDS011;3357;48.050;7.800;2024-03-29T05:51:56;7.60;;;0.90;;
6642;SDS011;3357;48.050;7.800;2024-03-29T05:54:21;2.20;;;1.00;;
6642;SDS011;3357;48.050;7.800;2024-03-29T05:56:47;1.23;;;0.80;;
6642;SDS011;3357;48.050;7.800;2024-03-29T05:59:13;1.17;;;1.00;;
6642;SDS011;3357;48.050;7.800;2024-03-29T06:01:38;1.20;;;0.90;;
6642;SDS011;3357;48.050;7.800;2024-03-29T06:04:03;1.80;;;1.10;;
6642;SDS011;3357;48.050;7.800;2024-03-29T06:06:33;1.53;;;0.83;;
6642;SDS011;3357;48.050;7.800;2024-03-29T06:08:59;1.13;;;1.03;;
6642;SDS011;3357;48.050;7.800;2024-03-29T06:11:24;2.50;;;1.40;;
6642;SDS011;3357;48.050;7.800;2024-03-29T06:13:49;3.20;;;1.50;;
6642;SDS011;3357;48.050;7.800;2024-03-29T06:16:17;4.97;;;2.47;;
6642;SDS011;3357;48.050;7.800;2024-03-29T06:19:02;6.80;;;2.93;;
6642;SDS011;3357;48.050;7.800;2024-03-29T06:21:28;3.80;;;2.90;;
6642;SDS011;3357;48.050;7.800;2024-03-29T06:23:53;5.33;;;2.57;;
6642;SDS011;3357;48.050;7.800;2024-03-29T06:26:18;2.50;;;1.73;;
6642;SDS011;3357;48.050;7.800;2024-03-29T06:28:44;2.00;;;1.50;;
6642;SDS011;3357;48.050;7.800;2024-03-29T06:31:09;1.33;;;1.00;;
6642;SDS011;3357;48.050;7.800;2024-03-29T06:33:35;2.60;;;0.90;;
6642;SDS011;3357;48.050;7.800;2024-03-29T06:36:00;6.60;;;1.30;;
6642;SDS011;3357;48.050;7.800;2024-03-29T06:38:25;1.83;;;1.03;;
6642;SDS011;3357;48.050;7.800;2024-03-29T06:40:50;4.67;;;1.80;;
6642;SDS011;3357;48.050;7.800;2024-03-29T06:43:16;4.63;;;1.60;;
6642;SDS011;3357;48.050;7.800;2024-03-29T06:45:41;2.10;;;1.57;;
6642;SDS011;3357;48.050;7.800;2024-03-29T06:48:09;3.50;;;1.33;;
6642;SDS011;3357;48.050;7.800;2024-03-29T06:50:35;1.13;;;0.90;;
6642;SDS011;3357;48.050;7.800;2024-03-29T06:53:00;1.33;;;1.10;;
6642;SDS011;3357;48.050;7.800;2024-03-29T06:55:25;1.40;;;1.30;;
6642;SDS011;3357;48.050;7.800;2024-03-29T06:57:51;2.57;;;1.47;;
6642;SDS011;3357;48.050;7.800;2024-03-29T07:00:16;2.13;;;1.60;;
6642;SDS011;3357;48.050;7.800;2024-03-29T07:02:42;1.30;;;1.20;;
6642;SDS011;3357;48.050;7.800;2024-03-29T07:05:07;1.53;;;1.03;;
6642;SDS011;3357;48.050;7.800;2024-03-29T07:07:36;3.60;;;1.27;;
6642;SDS011;3357;48.050;7.800;2024-03-29T07:10:01;1.60;;;1.43;;
6642;SDS011;3357;48.050;7.800;2024-03-29T07:12:27;1.00;;;0.90;;
6642;SDS011;3357;48.050;7.800;2024-03-29T07:14:52;0.83;;;0.83;;
6642;SDS011;3357;48.050;7.800;2024-03-29T07:17:17;5.70;;;1.70;;
6642;SDS011;3357;48.050;7.800;2024-03-29T07:19:43;3.73;;;1.60;;
6642;SDS011;3357;48.050;7.800;2024-03-29T07:22:08;5.70;;;2.20;;
6642;SDS011;3357;48.050;7.800;2024-03-29T07:24:33;4.10;;;2.37;;
6642;SDS011;3357;48.050;7.800;2024-03-29T07:26:58;2.23;;;2.03;;
6642;SDS011;3357;48.050;7.800;2024-03-29T07:29:24;2.90;;;2.10;;
6642;SDS011;3357;48.050;7.800;2024-03-29T07:31:49;5.20;;;2.93;;
6642;SDS011;3357;48.050;7.800;2024-03-29T07:34:14;3.97;;;2.10;;
6642;SDS011;3357;48.050;7.800;2024-03-29T07:36:41;6.07;;;2.03;;
6642;SDS011;3357;48.050;7.800;2024-03-29T07:39:06;3.80;;;2.90;;
6642;SDS011;3357;48.050;7.800;2024-03-29T07:41:31;6.97;;;3.43;;
6642;SDS011;3357;48.050;7.800;2024-03-29T07:43:57;8.00;;;4.10;;
6642;SDS011;3357;48.050;7.800;2024-03-29T07:46:28;5.73;;;3.83;;
6642;SDS011;3357;48.050;7.800;2024-03-29T07:48:57;4.97;;;3.80;;
6642;SDS011;3357;48.050;7.800;2024-03-29T07:51:23;7.53;;;3.90;;
6642;SDS011;3357;48.050;7.800;2024-03-29T07:53:48;6.10;;;3.77;;
6642;SDS011;3357;48.050;7.800;2024-03-29T07:56:13;6.17;;;3.47;;
6642;SDS011;3357;48.050;7.800;2024-03-29T07:58:39;11.20;;;2.77;;
6642;SDS011;3357;48.050;7.800;2024-03-29T08:01:04;5.70;;;2.73;;
6642;SDS011;3357;48.050;7.800;2024-03-29T08:03:29;6.20;;;2.57;;
6642;SDS011;3357;48.050;7.800;2024-03-29T08:06:00;3.77;;;2.90;;
6642;SDS011;3357;48.050;7.800;2024-03-29T08:08:30;3.43;;;3.07;;
6642;SDS011;3357;48.050;7.800;2024-03-29T08:10:55;2.73;;;2.10;;
6642;SDS011;3357;48.050;7.800;2024-03-29T08:13:21;3.83;;;2.03;;
6642;SDS011;3357;48.050;7.800;2024-03-29T08:15:47;5.00;;;1.93;;
6642;SDS011;3357;48.050;7.800;2024-03-29T08:18:13;3.50;;;2.03;;
6642;SDS011;3357;48.050;7.800;2024-03-29T08:20:38;2.90;;;1.73;;
6642;SDS011;3357;48.050;7.800;2024-03-29T08:23:04;3.97;;;1.67;;
6642;SDS011;3357;48.050;7.800;2024-03-29T08:25:29;3.60;;;1.80;;
6642;SDS011;3357;48.050;7.800;2024-03-29T08:27:55;2.17;;;1.60;;
6642;SDS011;3357;48.050;7.800;2024-03-29T08:30:24;2.93;;;2.20;;
6642;SDS011;3357;48.050;7.800;2024-03-29T08:32:50;3.00;;;2.80;;
6642;SDS011;3357;48.050;7.800;2024-03-29T08:35:17;3.27;;;2.50;;
6642;SDS011;3357;48.050;7.800;2024-03-29T08:37:42;2.50;;;2.30;;
6642;SDS011;3357;48.050;7.800;2024-03-29T08:40:08;2.83;;;2.40;;
6642;SDS011;3357;48.050;7.800;2024-03-29T08:42:34;5.43;;;2.50;;
6642;SDS011;3357;48.050;7.800;2024-03-29T08:45:02;7.90;;;3.20;;
6642;SDS011;3357;48.050;7.800;2024-03-29T08:47:28;9.17;;;5.60;;
6642;SDS011;3357;48.050;7.800;2024-03-29T08:49:53;5.40;;;4.10;;
6642;SDS011;3357;48.050;7.800;2024-03-29T08:52:19;6.10;;;3.70;;
6642;SDS011;3357;48.050;7.800;2024-03-29T08:54:44;7.00;;;3.10;;
6642;SDS011;3357;48.050;7.800;2024-03-29T08:57:09;9.67;;;4.70;;
6642;SDS011;3357;48.050;7.800;2024-03-29T08:59:35;12.73;;;7.10;;
6642;SDS011;3357;48.050;7.800;2024-03-29T09:02:03;9.67;;;5.60;;
6642;SDS011;3357;48.050;7.800;2024-03-29T09:04:31;5.67;;;5.10;;
6642;SDS011;3357;48.050;7.800;2024-03-29T09:06:58;8.47;;;5.07;;
6642;SDS011;3357;48.050;7.800;2024-03-29T09:09:24;4.43;;;2.67;;
6642;SDS011;3357;48.050;7.800;2024-03-29T09:11:49;4.53;;;2.43;;
6642;SDS011;3357;48.050;7.800;2024-03-29T09:14:14;1.37;;;1.20;;
6642;SDS011;3357;48.050;7.800;2024-03-29T09:16:40;2.10;;;0.77;;
6642;SDS011;3357;48.050;7.800;2024-03-29T09:19:06;1.93;;;1.33;;
6642;SDS011;3357;48.050;7.800;2024-03-29T09:21:31;2.43;;;0.80;;
6642;SDS011;3357;48.050;7.800;2024-03-29T09:23:56;3.00;;;1.90;;
6642;SDS011;3357;48.050;7.800;2024-03-29T09:26:22;5.53;;;1.87;;
6642;SDS011;3357;48.050;7.800;2024-03-29T09:28:47;2.10;;;1.90;;
6642;SDS011;3357;48.050;7.800;2024-03-29T09:31:12;2.80;;;1.50;;
6642;SDS011;3357;48.050;7.800;2024-03-29T09:33:37;3.50;;;0.90;;
6642;SDS011;3357;48.050;7.800;2024-03-29T09:36:03;1.90;;;1.13;;
6642;SDS011;3357;48.050;7.800;2024-03-29T09:38:29;1.07;;;0.90;;
6642;SDS011;3357;48.050;7.800;2024-03-29T09:41:00;2.87;;;2.23;;
6642;SDS011;3357;48.050;7.800;2024-03-29T09:43:42;4.73;;;2.67;;
6642;SDS011;3357;48.050;7.800;2024-03-29T09:46:12;3.37;;;2.03;;
6642;SDS011;3357;48.050;7.800;2024-03-29T09:48:39;1.00;;;0.90;;
6642;SDS011;3357;48.050;7.800;2024-03-29T09:51:10;0.97;;;0.97;;
6642;SDS011;3357;48.050;7.800;2024-03-29T09:53:38;3.90;;;2.63;;
6642;SDS011;3357;48.050;7.800;2024-03-29T09:56:05;5.00;;;3.00;;
6642;SDS011;3357;48.050;7.800;2024-03-29T09:58:34;2.97;;;2.70;;
6642;SDS011;3357;48.050;7.800;2024-03-29T10:01:00;3.23;;;1.70;;
6642;SDS011;3357;48.050;7.800;2024-03-29T10:03:28;1.10;;;1.10;;
6642;SDS011;3357;48.050;7.800;2024-03-29T10:05:58;1.70;;;1.20;;
6642;SDS011;3357;48.050;7.800;2024-03-29T10:08:25;2.97;;;0.80;;
6642;SDS011;3357;48.050;7.800;2024-03-29T10:10:52;1.07;;;0.90;;
6642;SDS011;3357;48.050;7.800;2024-03-29T10:13:17;2.10;;;0.60;;
6642;SDS011;3357;48.050;7.800;2024-03-29T10:15:43;1.27;;;0.70;;
6642;SDS011;3357;48.050;7.800;2024-03-29T10:18:12;1.40;;;0.77;;
6642;SDS011;3357;48.050;7.800;2024-03-29T10:20:37;1.43;;;0.60;;
6642;SDS011;3357;48.050;7.800;2024-03-29T10:23:03;1.83;;;0.50;;
6642;SDS011;3357;48.050;7.800;2024-03-29T10:25:32;0.90;;;0.57;;
6642;SDS011;3357;48.050;7.800;2024-03-29T10:27:58;1.10;;;0.70;;
6642;SDS011;3357;48.050;7.800;2024-03-29T10:30:24;0.60;;;0.60;;
6642;SDS011;3357;48.050;7.800;2024-03-29T10:32:50;0.50;;;0.50;;
6642;SDS011;3357;48.050;7.800;2024-03-29T10:35:16;0.50;;;0.50;;
6642;SDS011;3357;48.050;7.800;2024-03-29T10:37:42;0.90;;;0.50;;
6642;SDS011;3357;48.050;7.800;2024-03-29T10:40:09;0.40;;;0.40;;
6642;SDS011;3357;48.050;7.800;2024-03-29T10:42:38;1.67;;;0.53;;
6642;SDS011;3357;48.050;7.800;2024-03-29T10:45:07;0.50;;;0.50;;
6642;SDS011;3357;48.050;7.800;2024-03-29T10:47:33;1.07;;;0.50;;
6642;SDS011;3357;48.050;7.800;2024-03-29T10:49:58;0.60;;;0.40;;
6642;SDS011;3357;48.050;7.800;2024-03-29T10:52:24;4.87;;;0.60;;
6642;SDS011;3357;48.050;7.800;2024-03-29T10:54:51;0.70;;;0.70;;
6642;SDS011;3357;48.050;7.800;2024-03-29T10:57:22;1.40;;;0.60;;
6642;SDS011;3357;48.050;7.800;2024-03-29T11:00:08;0.60;;;0.60;;
6642;SDS011;3357;48.050;7.800;2024-03-29T11:02:56;0.50;;;0.50;;
6642;SDS011;3357;48.050;7.800;2024-03-29T11:05:26;1.20;;;0.70;;
6642;SDS011;3357;48.050;7.800;2024-03-29T11:07:54;0.93;;;0.93;;
6642;SDS011;3357;48.050;7.800;2024-03-29T11:16:00;3.80;;;0.50;;
6642;SDS011;3357;48.050;7.800;2024-03-29T11:18:26;1.10;;;0.70;;
6642;SDS011;3357;48.050;7.800;2024-03-29T11:20:52;1.50;;;0.60;;
6642;SDS011;3357;48.050;7.800;2024-03-29T11:23:19;0.77;;;0.50;;
6642;SDS011;3357;48.050;7.800;2024-03-29T11:25:46;0.73;;;0.60;;
6642;SDS011;3357;48.050;7.800;2024-03-29T11:28:15;0.60;;;0.50;;
6642;SDS011;3357;48.050;7.800;2024-03-29T11:30:49;1.67;;;0.40;;
6642;SDS011;3357;48.050;7.800;2024-03-29T11:33:28;1.80;;;0.60;;
6642;SDS011;3357;48.050;7.800;2024-03-29T11:35:55;0.80;;;0.60;;
6642;SDS011;3357;48.050;7.800;2024-03-29T11:38:20;1.27;;;0.60;;
6642;SDS011;3357;48.050;7.800;2024-03-29T11:43:45;4.77;;;0.70;;
6642;SDS011;3357;48.050;7.800;2024-03-29T11:46:11;0.80;;;0.60;;
6642;SDS011;3357;48.050;7.800;2024-03-29T11:48:38;1.13;;;0.60;;
6642;SDS011;3357;48.050;7.800;2024-03-29T11:51:04;0.70;;;0.60;;
6642;SDS011;3357;48.050;7.800;2024-03-29T11:53:31;0.90;;;0.60;;
6642;SDS011;3357;48.050;7.800;2024-03-29T11:55:57;1.13;;;1.03;;
6642;SDS011;3357;48.050;7.800;2024-03-29T11:58:23;4.40;;;0.80;;
6642;SDS011;3357;48.050;7.800;2024-03-29T12:00:50;3.17;;;0.50;;
6642;SDS011;3357;48.050;7.800;2024-03-29T12:03:16;0.90;;;0.60;;
6642;SDS011;3357;48.050;7.800;2024-03-29T12:05:43;6.70;;;0.80;;
6642;SDS011;3357;48.050;7.800;2024-03-29T12:08:09;1.70;;;0.60;;
6642;SDS011;3357;48.050;7.800;2024-03-29T12:10:35;5.03;;;0.90;;
6642;SDS011;3357;48.050;7.800;2024-03-29T12:13:01;1.97;;;1.33;;
6642;SDS011;3357;48.050;7.800;2024-03-29T12:15:27;3.43;;;0.73;;
6642;SDS011;3357;48.050;7.800;2024-03-29T12:17:57;1.90;;;0.80;;
6642;SDS011;3357;48.050;7.800;2024-03-29T12:20:22;1.43;;;0.67;;
6642;SDS011;3357;48.050;7.800;2024-03-29T12:22:48;1.03;;;0.60;;
6642;SDS011;3357;48.050;7.800;2024-03-29T12:25:13;0.70;;;0.50;;
6642;SDS011;3357;48.050;7.800;2024-03-29T12:27:38;0.80;;;0.60;;
6642;SDS011;3357;48.050;7.800;2024-03-29T12:30:04;1.70;;;0.80;;
6642;SDS011;3357;48.050;7.800;2024-03-29T12:32:30;1.73;;;0.60;;
6642;SDS011;3357;48.050;7.800;2024-03-29T12:35:07;2.23;;;1.10;;
6642;SDS011;3357;48.050;7.800;2024-03-29T12:37:33;1.10;;;0.70;;
6642;SDS011;3357;48.050;7.800;2024-03-29T12:39:59;0.87;;;0.60;;
6642;SDS011;3357;48.050;7.800;2024-03-29T12:42:24;2.47;;;0.60;;
6642;SDS011;3357;48.050;7.800;2024-03-29T12:44:50;3.10;;;0.70;;
6642;SDS011;3357;48.050;7.800;2024-03-29T12:47:16;3.70;;;0.60;;
6642;SDS011;3357;48.050;7.800;2024-03-29T12:49:42;1.30;;;0.60;;
6642;SDS011;3357;48.050;7.800;2024-03-29T12:52:07;2.10;;;0.70;;
6642;SDS011;3357;48.050;7.800;2024-03-29T12:54:33;1.80;;;0.70;;
6642;SDS011;3357;48.050;7.800;2024-03-29T12:56:59;1.77;;;0.50;;
6642;SDS011;3357;48.050;7.800;2024-03-29T12:59:33;1.57;;;0.60;;
6642;SDS011;3357;48.050;7.800;2024-03-29T13:01:59;2.10;;;0.73;;
6642;SDS011;3357;48.050;7.800;2024-03-29T13:04:24;2.57;;;0.70;;
6642;SDS011;3357;48.050;7.800;2024-03-29T13:06:49;2.30;;;0.70;;
6642;SDS011;3357;48.050;7.800;2024-03-29T13:09:15;1.00;;;0.83;;
6642;SDS011;3357;48.050;7.800;2024-03-29T13:11:40;3.03;;;0.70;;
6642;SDS011;3357;48.050;7.800;2024-03-29T13:14:06;3.23;;;0.70;;
6642;SDS011;3357;48.050;7.800;2024-03-29T13:16:31;5.20;;;0.70;;
6642;SDS011;3357;48.050;7.800;2024-03-29T13:18:57;1.70;;;0.60;;
6642;SDS011;3357;48.050;7.800;2024-03-29T13:21:22;1.37;;;0.60;;
6642;SDS011;3357;48.050;7.800;2024-03-29T13:23:47;3.87;;;0.80;;
6642;SDS011;3357;48.050;7.800;2024-03-29T13:26:13;0.67;;;0.60;;
6642;SDS011;3357;48.050;7.800;2024-03-29T13:28:38;0.57;;;0.53;;
6642;SDS011;3357;48.050;7.800;2024-03-29T13:31:03;1.00;;;0.70;;
6642;SDS011;3357;48.050;7.800;2024-03-29T13:33:29;0.60;;;0.60;;
6642;SDS011;3357;48.050;7.800;2024-03-29T13:35:54;1.80;;;0.60;;
6642;SDS011;3357;48.050;7.800;2024-03-29T13:38:22;0.90;;;0.60;;
6642;SDS011;3357;48.050;7.800;2024-03-29T13:40:48;6.13;;;0.50;;
6642;SDS011;3357;48.050;7.800;2024-03-29T13:43:14;0.50;;;0.40;;
6642;SDS011;3357;48.050;7.800;2024-03-29T13:45:40;2.80;;;0.60;;
6642;SDS011;3357;48.050;7.800;2024-03-29T13:48:05;1.47;;;0.63;;
6642;SDS011;3357;48.050;7.800;2024-03-29T13:50:31;0.87;;;0.50;;
6642;SDS011;3357;48.050;7.800;2024-03-29T13:52:56;1.40;;;0.80;;
6642;SDS011;3357;48.050;7.800;2024-03-29T13:55:22;0.70;;;0.70;;
6642;SDS011;3357;48.050;7.800;2024-03-29T13:57:50;2.30;;;0.80;;
6642;SDS011;3357;48.050;7.800;2024-03-29T14:00:16;1.93;;;0.60;;
6642;SDS011;3357;48.050;7.800;2024-03-29T14:02:44;0.70;;;0.70;;
6642;SDS011;3357;48.050;7.800;2024-03-29T14:05:09;2.93;;;0.60;;
6642;SDS011;3357;48.050;7.800;2024-03-29T14:07:34;0.90;;;0.40;;
6642;SDS011;3357;48.050;7.800;2024-03-29T14:10:00;0.80;;;0.60;;
6642;SDS011;3357;48.050;7.800;2024-03-29T14:12:28;1.43;;;0.67;;
6642;SDS011;3357;48.050;7.800;2024-03-29T14:14:54;4.83;;;0.60;;
6642;SDS011;3357;48.050;7.800;2024-03-29T14:17:19;1.17;;;0.70;;
6642;SDS011;3357;48.050;7.800;2024-03-29T14:19:46;3.60;;;0.90;;
6642;SDS011;3357;48.050;7.800;2024-03-29T14:22:12;0.80;;;0.60;;
6642;SDS011;3357;48.050;7.800;2024-03-29T14:24:40;0.93;;;0.70;;
6642;SDS011;3357;48.050;7.800;2024-03-29T14:27:06;1.63;;;0.83;;
6642;SDS011;3357;48.050;7.800;2024-03-29T14:29:31;0.80;;;0.80;;
6642;SDS011;3357;48.050;7.800;2024-03-29T14:31:57;1.27;;;0.70;;
6642;SDS011;3357;48.050;7.800;2024-03-29T14:34:22;0.90;;;0.50;;
6642;SDS011;3357;48.050;7.800;2024-03-29T14:36:48;5.13;;;0.80;;
6642;SDS011;3357;48.050;7.800;2024-03-29T14:39:13;1.17;;;0.60;;
6642;SDS011;3357;48.050;7.800;2024-03-29T14:41:39;1.10;;;0.70;;
6642;SDS011;3357;48.050;7.800;2024-03-29T14:44:05;1.87;;;0.60;;
6642;SDS011;3357;48.050;7.800;2024-03-29T14:46:32;2.20;;;0.80;;
6642;SDS011;3357;48.050;7.800;2024-03-29T14:48:57;0.77;;;0.50;;
6642;SDS011;3357;48.050;7.800;2024-03-29T14:51:22;0.77;;;0.60;;
6642;SDS011;3357;48.050;7.800;2024-03-29T14:53:48;0.50;;;0.50;;
6642;SDS011;3357;48.050;7.800;2024-03-29T14:56:15;1.00;;;0.63;;
6642;SDS011;3357;48.050;7.800;2024-03-29T14:58:41;0.67;;;0.50;;
6642;SDS011;3357;48.050;7.800;2024-03-29T15:01:06;0.50;;;0.50;;
6642;SDS011;3357;48.050;7.800;2024-03-29T15:03:31;1.37;;;0.70;;
6642;SDS011;3357;48.050;7.800;2024-03-29T15:05:57;3.40;;;0.60;;
6642;SDS011;3357;48.050;7.800;2024-03-29T15:08:22;0.70;;;0.60;;
6642;SDS011;3357;48.050;7.800;2024-03-29T15:10:55;1.67;;;0.50;;
6642;SDS011;3357;48.050;7.800;2024-03-29T15:13:23;2.40;;;0.70;;
6642;SDS011;3357;48.050;7.800;2024-03-29T15:15:52;0.80;;;0.70;;
6642;SDS011;3357;48.050;7.800;2024-03-29T15:18:21;1.47;;;0.67;;